Terminal Aerodrome Forecast
Issued by NWS

Current Version | Previous Version | Text Only | Print | Product List | Glossary On
Versions: 1 2 3 4 5 6 7 8 9 10 11 12 13 14 15 16 17 18
000
FTUS45 KPSR 191120
TAFIPL
TAF
KIPL 191120Z 1912/2012 20006KT P6SM BKN100
     FM191600 18006KT P6SM FEW060 BKN110
     FM192000 26015G25KT P6SM FEW070 SCT110
     FM200300 27010KT P6SM SCT120 BKN250=

USA.gov is the U.S. government's official web portal to all federal, state and local government web resources and services.